Time;durP1;ratioP1;P1;durP2;ratioP2;P2;SDS_P1;SDS_P2;PMS_P1;PMS_P2;Temp;Humidity;BMP_temperature;BMP_pressure;BME280_temperature;BME280_humidity;BME280_pressure;Samples;Min_cycle;Max_cycle;Signal;HPM_P1;HPM_P2
2023/08/12 00:01:48;;;;;;;1.80;1.70;;;23.70;68.80;;;;;;5133754;27;20042;-73
2023/08/12 00:04:15;;;;;;;1.63;1.52;;;23.70;68.90;;;;;;5150511;27;20486;-73
2023/08/12 00:06:41;;;;;;;1.77;1.67;;;23.70;68.90;;;;;;5134298;27;20453;-72
2023/08/12 00:09:08;;;;;;;1.98;1.83;;;23.70;68.80;;;;;;5134036;27;20127;-73
2023/08/12 00:11:35;;;;;;;2.05;1.80;;;23.70;68.70;;;;;;5132300;27;20381;-73
2023/08/12 00:14:02;;;;;;;2.20;2.00;;;23.70;68.70;;;;;;5134254;27;20381;-73
2023/08/12 00:16:28;;;;;;;2.30;1.90;;;23.70;68.70;;;;;;5134179;27;20083;-73
2023/08/12 00:18:53;;;;;;;1.90;1.80;;;23.70;68.60;;;;;;5134330;27;20372;-73
2023/08/12 00:21:19;;;;;;;2.33;1.80;;;23.70;68.60;;;;;;5133674;27;20094;-73
2023/08/12 00:23:47;;;;;;;1.85;1.75;;;23.70;68.60;;;;;;5133836;27;20051;-73
2023/08/12 00:26:13;;;;;;;1.70;1.60;;;23.70;68.70;;;;;;5150065;27;20572;-73
2023/08/12 00:28:38;;;;;;;2.08;1.88;;;23.70;68.60;;;;;;5133996;27;20110;-73
2023/08/12 00:31:04;;;;;;;1.92;1.80;;;23.70;68.60;;;;;;5133846;27;20369;-73
2023/08/12 00:33:30;;;;;;;2.60;1.75;;;23.70;68.50;;;;;;5133353;27;20083;-73
2023/08/12 00:35:55;;;;;;;2.40;2.20;;;23.70;68.50;;;;;;5149972;27;20072;-73
2023/08/12 00:38:21;;;;;;;2.42;2.03;;;23.70;68.40;;;;;;5134013;28;20023;-73
2023/08/12 00:40:47;;;;;;;2.00;1.80;;;23.70;68.30;;;;;;5132665;27;20031;-72
2023/08/12 00:43:13;;;;;;;1.70;1.60;;;23.70;68.20;;;;;;5149403;27;20027;-73
2023/08/12 00:45:39;;;;;;;2.20;2.00;;;23.70;68.30;;;;;;5133529;27;20026;-73
2023/08/12 00:48:05;;;;;;;2.20;2.00;;;23.70;68.20;;;;;;5133871;28;20023;-72
2023/08/12 00:50:31;;;;;;;2.45;1.90;;;23.70;68.20;;;;;;5133637;28;20055;-74
2023/08/12 00:52:58;;;;;;;2.25;1.83;;;23.70;68.30;;;;;;5133602;27;20027;-73
2023/08/12 00:55:24;;;;;;;3.00;1.83;;;23.70;68.30;;;;;;5134915;27;20023;-73
2023/08/12 00:57:50;;;;;;;2.47;2.10;;;23.70;68.20;;;;;;5137421;27;20366;-73
2023/08/12 01:00:20;;;;;;;2.15;1.95;;;23.70;68.20;;;;;;5138021;27;20027;-73
2023/08/12 01:02:48;;;;;;;1.90;1.80;;;23.70;68.20;;;;;;5137645;27;20027;-73
2023/08/12 01:05:15;;;;;;;2.60;2.17;;;23.70;68.20;;;;;;5137889;27;20019;-73
2023/08/12 01:07:41;;;;;;;1.80;1.70;;;23.70;68.30;;;;;;5153413;27;20111;-73
2023/08/12 01:10:08;;;;;;;2.03;1.92;;;23.60;68.30;;;;;;5137720;27;20076;-73
2023/08/12 01:12:40;;;;;;;2.05;1.92;;;23.60;68.30;;;;;;5153321;27;20487;-73
2023/08/12 01:15:12;;;;;;;2.42;2.20;;;23.60;68.30;;;;;;5137402;27;20408;-72
2023/08/12 01:17:41;;;;;;;3.50;2.13;;;23.50;68.30;;;;;;5137419;27;20019;-73
2023/08/12 01:20:08;;;;;;;1.90;1.80;;;23.60;68.90;;;;;;5137506;27;20454;-73
2023/08/12 01:22:39;;;;;;;1.85;1.75;;;23.50;68.30;;;;;;5137126;27;20430;-73
2023/08/12 01:25:05;;;;;;;2.10;1.90;;;23.50;68.30;;;;;;5137026;27;20031;-72
2023/08/12 01:27:31;;;;;;;2.08;1.88;;;23.60;68.30;;;;;;5137259;27;20019;-73
2023/08/12 01:29:57;;;;;;;2.10;1.90;;;23.50;68.20;;;;;;5137476;27;20023;-74
2023/08/12 01:32:45;;;;;;;2.35;2.10;;;23.60;68.30;;;;;;5137328;27;20034;-73
2023/08/12 01:35:38;;;;;;;2.15;1.95;;;23.50;68.30;;;;;;5136865;27;20027;-73
2023/08/12 01:38:06;;;;;;;3.22;2.00;;;23.50;68.20;;;;;;5137383;27;20059;-73
2023/08/12 01:40:35;;;;;;;2.15;1.92;;;23.50;68.30;;;;;;5137255;27;20358;-73
2023/08/12 01:43:03;;;;;;;3.53;2.05;;;23.50;68.30;;;;;;5153135;27;20048;-74
2023/08/12 01:45:31;;;;;;;2.08;1.95;;;23.50;68.20;;;;;;5136451;27;20034;-74
2023/08/12 01:47:57;;;;;;;2.47;2.20;;;23.50;68.20;;;;;;5136640;27;20027;-73
2023/08/12 01:50:23;;;;;;;4.55;2.10;;;23.50;68.30;;;;;;5137156;27;20023;-74
2023/08/12 01:52:49;;;;;;;2.38;2.17;;;23.50;68.30;;;;;;5137065;27;20031;-73
2023/08/12 01:55:15;;;;;;;2.30;2.10;;;23.50;68.30;;;;;;5136462;27;20195;-73
2023/08/12 01:57:41;;;;;;;3.05;1.90;;;23.50;68.30;;;;;;5136534;27;20030;-73
2023/08/12 02:00:08;;;;;;;1.92;1.70;;;23.50;68.30;;;;;;5136410;27;20033;-73
2023/08/12 02:02:33;;;;;;;2.50;2.30;;;23.50;68.20;;;;;;5152428;27;20027;-73
2023/08/12 02:04:59;;;;;;;2.50;2.10;;;23.50;68.20;;;;;;5136559;27;20026;-73
2023/08/12 02:07:25;;;;;;;2.63;2.35;;;23.60;68.20;;;;;;5135393;27;20049;-72
2023/08/12 02:09:50;;;;;;;3.13;2.13;;;23.60;68.10;;;;;;5136409;27;20114;-73
2023/08/12 02:12:16;;;;;;;2.80;2.03;;;23.60;68.10;;;;;;5136225;27;20035;-73
2023/08/12 02:14:42;;;;;;;2.50;2.30;;;23.60;68.00;;;;;;5136489;27;20027;-73
2023/08/12 02:17:07;;;;;;;2.17;1.98;;;23.60;68.00;;;;;;5136014;27;20027;-72
2023/08/12 02:19:34;;;;;;;2.85;1.90;;;23.60;67.90;;;;;;5136114;27;20441;-72
2023/08/12 02:22:01;;;;;;;2.65;2.45;;;23.50;67.90;;;;;;5136509;27;20410;-73
2023/08/12 02:24:27;;;;;;;2.40;2.20;;;23.50;68.50;;;;;;5136131;27;20373;-72
2023/08/12 02:26:53;;;;;;;2.75;2.00;;;23.50;67.90;;;;;;5135935;27;20027;-72
2023/08/12 02:29:18;;;;;;;2.47;2.28;;;23.50;67.90;;;;;;5136206;27;20027;-73
2023/08/12 02:31:44;;;;;;;2.40;2.20;;;23.50;68.00;;;;;;5151867;27;20034;-73
2023/08/12 02:34:10;;;;;;;2.58;2.38;;;23.50;68.30;;;;;;5136517;27;20461;-74
2023/08/12 02:36:36;;;;;;;2.47;1.90;;;23.50;67.90;;;;;;5135724;27;20031;-73
2023/08/12 02:39:01;;;;;;;2.58;2.28;;;23.50;67.90;;;;;;5136414;27;20485;-73
2023/08/12 02:41:27;;;;;;;2.55;2.20;;;23.50;67.80;;;;;;5135585;27;20023;-74
2023/08/12 02:43:53;;;;;;;2.42;2.20;;;23.50;67.90;;;;;;5136012;27;20023;-73
2023/08/12 02:46:18;;;;;;;2.30;2.05;;;23.50;67.90;;;;;;5135410;27;20063;-74
2023/08/12 02:48:47;;;;;;;2.30;2.03;;;23.60;67.90;;;;;;5135511;27;20026;-73
2023/08/12 02:51:12;;;;;;;3.03;2.25;;;23.50;67.80;;;;;;5135894;27;20027;-73
2023/08/12 02:53:38;;;;;;;3.47;2.20;;;23.50;67.70;;;;;;5135561;27;20068;-73
2023/08/12 02:56:04;;;;;;;2.60;2.40;;;23.50;67.70;;;;;;5151651;27;20385;-74
2023/08/12 02:58:29;;;;;;;3.13;2.40;;;23.50;67.60;;;;;;5135412;27;20065;-73
2023/08/12 03:00:55;;;;;;;2.58;2.17;;;23.50;67.60;;;;;;5135409;27;20035;-73
2023/08/12 03:03:21;;;;;;;2.85;2.40;;;23.50;67.60;;;;;;5135578;27;20068;-73
2023/08/12 03:05:48;;;;;;;2.40;2.20;;;23.50;67.70;;;;;;5135359;27;20019;-73
2023/08/12 03:08:13;;;;;;;2.70;2.50;;;23.50;67.70;;;;;;5135198;27;20110;-75
2023/08/12 03:10:39;;;;;;;2.35;2.15;;;23.50;67.60;;;;;;5151051;27;20146;-73
2023/08/12 03:13:05;;;;;;;3.13;2.45;;;23.50;68.20;;;;;;5135044;27;20027;-73
2023/08/12 03:15:30;;;;;;;4.25;2.72;;;23.50;67.60;;;;;;5134823;27;20063;-74
2023/08/12 03:17:57;;;;;;;3.25;2.42;;;23.50;67.60;;;;;;5134712;27;20020;-73
2023/08/12 03:20:22;;;;;;;2.90;2.60;;;23.50;67.60;;;;;;5135356;27;20027;-73
2023/08/12 03:22:48;;;;;;;2.88;2.60;;;23.50;67.60;;;;;;5151214;27;20038;-74
2023/08/12 03:25:15;;;;;;;3.05;2.35;;;23.50;67.60;;;;;;5135113;27;20026;-73
2023/08/12 03:27:41;;;;;;;4.53;2.95;;;23.50;67.60;;;;;;5134474;27;20051;-75
2023/08/12 03:30:07;;;;;;;4.03;2.60;;;23.50;67.60;;;;;;5150835;27;20426;-73
2023/08/12 03:32:33;;;;;;;3.28;2.42;;;23.40;67.60;;;;;;5134833;27;20027;-73
2023/08/12 03:34:58;;;;;;;3.05;2.72;;;23.40;67.60;;;;;;5134956;27;20027;-72
2023/08/12 03:37:25;;;;;;;3.10;2.70;;;23.40;67.60;;;;;;5134339;27;20027;-74
2023/08/12 03:39:51;;;;;;;3.40;2.70;;;23.30;67.60;;;;;;5150721;27;20034;-73
2023/08/12 03:42:16;;;;;;;3.15;2.78;;;23.40;67.70;;;;;;5134832;27;20027;-73
2023/08/12 03:44:43;;;;;;;2.95;2.58;;;23.40;67.60;;;;;;5134543;27;20460;-73
2023/08/12 03:47:08;;;;;;;3.10;2.80;;;23.40;67.60;;;;;;5134861;27;20408;-72
2023/08/12 03:49:34;;;;;;;3.10;2.80;;;23.40;67.60;;;;;;5133964;27;20019;-73
2023/08/12 03:52:00;;;;;;;3.13;2.70;;;23.40;67.60;;;;;;5134464;27;20077;-73
2023/08/12 03:54:25;;;;;;;3.10;2.80;;;23.40;67.60;;;;;;5134383;27;20410;-73
2023/08/12 03:56:51;;;;;;;3.45;2.75;;;23.40;67.30;;;;;;5134527;27;20027;-73
2023/08/12 03:59:17;;;;;;;3.15;2.53;;;23.40;67.40;;;;;;5133950;27;20023;-74
2023/08/12 04:01:42;;;;;;;4.50;2.92;;;23.40;67.40;;;;;;5134020;27;20031;-72
2023/08/12 04:04:08;;;;;;;4.20;2.55;;;23.40;67.30;;;;;;5134389;27;20039;-73
2023/08/12 04:06:33;;;;;;;3.22;2.90;;;23.50;67.30;;;;;;5134243;27;20027;-73
2023/08/12 04:08:59;;;;;;;2.88;2.58;;;23.50;67.30;;;;;;5133943;27;20075;-73
2023/08/12 04:11:25;;;;;;;3.45;3.10;;;23.50;67.30;;;;;;5134469;27;20067;-73
2023/08/12 04:13:50;;;;;;;3.08;2.65;;;23.50;67.10;;;;;;5133877;27;20118;-73
2023/08/12 04:16:16;;;;;;;3.58;2.78;;;23.40;67.70;;;;;;5134391;27;20038;-73
2023/08/12 04:18:42;;;;;;;3.85;2.80;;;23.40;67.10;;;;;;5133793;27;20019;-72
2023/08/12 04:21:08;;;;;;;3.42;2.90;;;23.40;67.20;;;;;;5133967;27;20034;-73
2023/08/12 04:23:33;;;;;;;4.65;2.80;;;23.50;67.10;;;;;;5133788;27;20419;-73
2023/08/12 04:25:59;;;;;;;2.60;2.40;;;23.50;67.10;;;;;;5133779;27;20503;-73
2023/08/12 04:28:25;;;;;;;3.35;2.63;;;23.50;67.10;;;;;;5133900;27;20488;-73
2023/08/12 04:30:52;;;;;;;2.92;2.65;;;23.60;67.00;;;;;;5133338;27;20027;-73
2023/08/12 04:33:19;;;;;;;4.05;2.80;;;23.60;66.80;;;;;;5134035;27;20134;-73
2023/08/12 04:35:45;;;;;;;3.50;2.72;;;23.60;66.80;;;;;;5133661;28;20026;-73
2023/08/12 04:38:11;;;;;;;2.80;2.60;;;23.60;66.80;;;;;;5133607;28;20023;-74
2023/08/12 04:40:41;;;;;;;3.10;2.80;;;23.60;66.70;;;;;;5133581;27;20027;-72
2023/08/12 04:43:08;;;;;;;3.22;2.85;;;23.60;66.50;;;;;;5133723;27;20046;-73
2023/08/12 04:45:34;;;;;;;2.83;2.60;;;23.50;66.60;;;;;;5149752;27;20380;-73
2023/08/12 04:48:00;;;;;;;2.75;2.50;;;23.50;66.70;;;;;;5133922;28;20028;-73
2023/08/12 04:50:29;;;;;;;3.40;2.40;;;23.60;66.70;;;;;;5133159;28;20788;-73
2023/08/12 04:52:54;;;;;;;2.88;2.60;;;23.60;66.70;;;;;;5133681;27;20023;-73
2023/08/12 04:55:20;;;;;;;3.08;2.53;;;23.70;66.50;;;;;;5133599;27;20038;-73
2023/08/12 04:57:46;;;;;;;3.58;2.50;;;23.70;66.50;;;;;;5133143;28;20023;-73
2023/08/12 05:00:12;;;;;;;4.22;3.08;;;23.70;66.30;;;;;;5133786;28;20031;-74
2023/08/12 05:02:37;;;;;;;2.97;2.50;;;23.70;66.30;;;;;;5133074;28;20124;-72
2023/08/12 05:05:03;;;;;;;2.65;2.45;;;23.70;66.20;;;;;;5133737;28;20109;-73
2023/08/12 05:07:31;;;;;;;2.85;2.58;;;23.70;66.20;;;;;;5133395;28;20034;-72
2023/08/12 05:09:57;;;;;;;2.60;2.40;;;23.80;66.10;;;;;;5149418;27;20043;-73
2023/08/12 05:12:22;;;;;;;2.50;2.30;;;23.80;66.00;;;;;;5133151;27;20061;-73
2023/08/12 05:14:48;;;;;;;2.50;2.30;;;23.80;65.80;;;;;;5133416;28;20035;-73
2023/08/12 05:17:13;;;;;;;2.95;2.65;;;23.90;65.80;;;;;;5133655;28;20030;-74
2023/08/12 05:19:39;;;;;;;2.65;2.45;;;23.90;65.80;;;;;;5133114;27;20465;-73
2023/08/12 05:22:05;;;;;;;3.00;2.70;;;23.90;65.60;;;;;;5133511;28;20462;-73
2023/08/12 05:24:30;;;;;;;3.85;2.70;;;23.90;65.30;;;;;;5133351;28;20026;-73
2023/08/12 05:26:56;;;;;;;2.47;2.28;;;23.80;65.20;;;;;;5132969;27;20057;-73
2023/08/12 05:29:21;;;;;;;2.83;2.30;;;23.80;65.20;;;;;;5133616;27;20380;-74
2023/08/12 05:31:47;;;;;;;2.42;2.22;;;23.80;65.40;;;;;;5132723;28;20080;-73
2023/08/12 05:34:13;;;;;;;3.85;2.40;;;23.80;65.40;;;;;;5133276;28;20034;-73
2023/08/12 05:36:38;;;;;;;2.55;2.28;;;23.90;65.40;;;;;;5133250;27;20045;-73
2023/08/12 05:39:04;;;;;;;2.70;2.28;;;23.90;65.20;;;;;;5132962;28;20027;-73
2023/08/12 05:41:30;;;;;;;2.97;2.33;;;23.90;65.20;;;;;;5134714;27;20027;-73
2023/08/12 05:43:55;;;;;;;3.65;2.63;;;23.90;65.10;;;;;;5152961;27;20023;-73
2023/08/12 05:46:21;;;;;;;2.42;2.20;;;23.90;65.10;;;;;;5137139;27;20457;-72
2023/08/12 05:48:47;;;;;;;3.00;2.70;;;23.80;65.10;;;;;;5137000;27;20098;-73
2023/08/12 05:51:12;;;;;;;2.65;2.42;;;23.90;65.10;;;;;;5152493;27;20400;-73
2023/08/12 05:53:38;;;;;;;3.42;2.35;;;23.90;65.10;;;;;;5135776;27;20033;-73
2023/08/12 05:56:04;;;;;;;3.00;2.70;;;23.90;65.00;;;;;;5136963;27;20413;-73
2023/08/12 05:58:30;;;;;;;2.50;2.30;;;23.90;65.00;;;;;;5152854;27;20027;-73
2023/08/12 06:00:55;;;;;;;2.97;2.60;;;23.90;65.10;;;;;;5137072;27;20469;-73
2023/08/12 06:03:21;;;;;;;3.50;2.72;;;23.90;65.10;;;;;;5135000;27;20093;-73
2023/08/12 06:05:47;;;;;;;3.00;2.40;;;23.90;65.00;;;;;;5136346;27;20034;-72
2023/08/12 06:08:13;;;;;;;3.33;2.53;;;24.00;65.00;;;;;;5136632;27;20027;-73
2023/08/12 06:10:39;;;;;;;3.58;2.60;;;23.90;64.90;;;;;;5152394;27;20427;-72
2023/08/12 06:13:05;;;;;;;3.40;2.40;;;24.00;64.90;;;;;;5136455;27;20027;-73
2023/08/12 06:15:30;;;;;;;2.92;2.63;;;24.00;64.90;;;;;;5135759;27;20243;-72
2023/08/12 06:17:56;;;;;;;3.72;2.80;;;24.10;64.90;;;;;;5136403;27;20033;-72
2023/08/12 06:20:23;;;;;;;2.95;2.65;;;24.10;64.90;;;;;;5136311;27;20457;-73
2023/08/12 06:22:49;;;;;;;3.38;2.70;;;24.10;64.80;;;;;;5152159;27;20080;-73
2023/08/12 06:25:15;;;;;;;3.10;2.63;;;24.10;64.70;;;;;;5136086;27;20081;-72
2023/08/12 06:27:41;;;;;;;2.95;2.65;;;24.20;64.70;;;;;;5135556;27;20528;-73
2023/08/12 06:30:07;;;;;;;3.17;2.60;;;24.10;64.60;;;;;;5136305;27;20106;-72
2023/08/12 06:32:34;;;;;;;3.42;2.58;;;24.10;64.60;;;;;;5152047;27;20483;-72
2023/08/12 06:34:59;;;;;;;3.05;2.75;;;24.20;64.70;;;;;;5135849;27;20110;-73
2023/08/12 06:37:25;;;;;;;2.55;2.35;;;24.20;64.60;;;;;;5151535;27;20118;-73
2023/08/12 06:39:51;;;;;;;3.03;2.72;;;24.30;64.50;;;;;;5136115;27;20015;-73
2023/08/12 06:42:16;;;;;;;3.35;2.70;;;24.30;64.40;;;;;;5136189;27;20144;-72
2023/08/12 06:44:42;;;;;;;2.83;2.53;;;24.40;64.30;;;;;;5135430;27;20102;-72
2023/08/12 06:47:08;;;;;;;3.63;2.55;;;24.40;64.20;;;;;;5135824;27;20454;-73
2023/08/12 06:49:33;;;;;;;4.25;2.83;;;24.50;64.10;;;;;;5135838;27;20027;-72
2023/08/12 06:51:59;;;;;;;3.08;2.42;;;24.50;64.00;;;;;;5135181;27;20023;-73
2023/08/12 06:54:24;;;;;;;2.53;2.22;;;24.60;64.00;;;;;;5150675;27;20030;-72
2023/08/12 06:56:50;;;;;;;2.83;2.55;;;24.60;63.90;;;;;;5135841;27;20490;-72
2023/08/12 06:59:16;;;;;;;2.60;2.40;;;24.70;63.90;;;;;;5135724;27;20381;-73
2023/08/12 07:01:41;;;;;;;2.78;2.30;;;24.70;63.70;;;;;;5135255;27;20118;-73
2023/08/12 07:04:07;;;;;;;2.40;2.20;;;24.70;63.70;;;;;;5135274;27;20035;-73
2023/08/12 07:06:33;;;;;;;2.85;2.58;;;24.70;63.60;;;;;;5135321;27;20026;-73
2023/08/12 07:08:58;;;;;;;3.35;2.28;;;24.80;63.60;;;;;;5135351;27;20055;-72
2023/08/12 07:11:24;;;;;;;2.70;2.42;;;24.80;63.50;;;;;;5151392;27;20031;-72
2023/08/12 07:13:49;;;;;;;4.07;2.63;;;24.80;63.40;;;;;;5135184;27;20023;-72
2023/08/12 07:16:15;;;;;;;3.35;2.22;;;24.90;63.40;;;;;;5134755;27;20027;-72
2023/08/12 07:18:41;;;;;;;2.67;2.47;;;24.90;63.30;;;;;;5135066;27;20023;-73
2023/08/12 07:21:06;;;;;;;2.50;2.30;;;24.90;63.30;;;;;;5151076;27;20027;-72
2023/08/12 07:23:32;;;;;;;2.78;2.47;;;24.90;63.20;;;;;;5134861;27;20023;-72
2023/08/12 07:25:58;;;;;;;2.45;2.25;;;24.90;63.10;;;;;;5134998;27;20059;-72
2023/08/12 07:28:23;;;;;;;3.22;2.78;;;24.90;63.10;;;;;;5150781;27;20027;-73
2023/08/12 07:30:49;;;;;;;2.90;2.55;;;24.90;63.00;;;;;;5134607;27;20027;-72
2023/08/12 07:33:15;;;;;;;2.50;2.30;;;25.00;63.00;;;;;;5134966;27;20054;-73
2023/08/12 07:35:41;;;;;;;3.17;2.42;;;25.00;62.90;;;;;;5150083;27;20067;-72
2023/08/12 07:38:07;;;;;;;2.33;2.13;;;25.00;62.90;;;;;;5134433;27;20534;-74
2023/08/12 07:40:33;;;;;;;3.67;2.40;;;25.00;62.80;;;;;;5134618;27;20023;-73
2023/08/12 07:42:58;;;;;;;2.63;2.40;;;25.10;62.80;;;;;;5134693;27;20027;-74
2023/08/12 07:45:24;;;;;;;3.22;2.53;;;25.00;62.60;;;;;;5134638;27;20091;-73
2023/08/12 07:47:50;;;;;;;2.92;2.40;;;25.10;62.70;;;;;;5134583;27;20434;-73
2023/08/12 07:50:16;;;;;;;2.97;2.60;;;25.10;62.60;;;;;;5150471;27;20023;-73
2023/08/12 07:52:42;;;;;;;2.65;2.40;;;25.10;62.50;;;;;;5134214;27;20030;-73
2023/08/12 07:55:08;;;;;;;4.53;2.70;;;25.10;62.40;;;;;;5134066;27;20073;-73
2023/08/12 07:57:33;;;;;;;2.70;2.50;;;25.10;62.40;;;;;;5133946;27;20582;-73
2023/08/12 07:59:59;;;;;;;2.60;2.40;;;25.10;62.40;;;;;;5134348;27;20390;-72
2023/08/12 08:02:25;;;;;;;2.72;2.45;;;25.10;62.40;;;;;;5134129;27;20027;-73
2023/08/12 08:04:50;;;;;;;2.70;2.33;;;25.10;62.30;;;;;;5133359;27;20046;-73
2023/08/12 08:07:17;;;;;;;3.60;2.40;;;25.20;62.30;;;;;;5133573;27;20457;-74
2023/08/12 08:09:43;;;;;;;2.67;2.25;;;25.20;62.20;;;;;;5133952;27;20043;-74
2023/08/12 08:12:09;;;;;;;2.60;2.40;;;25.20;62.00;;;;;;5134348;27;20031;-73
2023/08/12 08:14:35;;;;;;;2.63;2.42;;;25.10;61.80;;;;;;5134156;27;20031;-74
2023/08/12 08:17:01;;;;;;;2.95;2.63;;;25.10;61.80;;;;;;5149674;27;20026;-73
2023/08/12 08:19:26;;;;;;;2.65;2.30;;;25.20;61.90;;;;;;5149193;27;20140;-74
2023/08/12 08:21:52;;;;;;;2.88;2.60;;;25.10;61.70;;;;;;5133800;27;20031;-73
2023/08/12 08:24:18;;;;;;;3.83;2.60;;;25.10;61.70;;;;;;5134083;27;20608;-73
2023/08/12 08:26:45;;;;;;;2.78;2.50;;;25.10;61.70;;;;;;5149871;27;20416;-73
2023/08/12 08:29:11;;;;;;;2.92;2.60;;;25.10;61.50;;;;;;5149793;27;20362;-73
2023/08/12 08:31:36;;;;;;;3.75;2.78;;;25.10;61.40;;;;;;5133268;27;20163;-73
2023/08/12 08:34:02;;;;;;;2.50;2.20;;;25.20;61.40;;;;;;5133667;27;20064;-74
2023/08/12 08:36:28;;;;;;;3.85;2.50;;;25.10;61.30;;;;;;5149895;27;20117;-73
2023/08/12 08:38:54;;;;;;;3.65;2.40;;;25.20;61.40;;;;;;5132485;27;20424;-73
2023/08/12 08:41:19;;;;;;;3.50;2.58;;;25.20;61.30;;;;;;5133832;27;20033;-74
2023/08/12 08:43:47;;;;;;;3.00;2.28;;;25.20;61.30;;;;;;5133228;27;20782;-73
2023/08/12 08:46:16;;;;;;;3.85;2.80;;;25.20;61.10;;;;;;5133607;28;20028;-72
2023/08/12 08:48:46;;;;;;;2.65;2.35;;;25.30;60.70;;;;;;5149128;27;20084;-73
2023/08/12 08:51:12;;;;;;;2.50;2.30;;;25.30;60.70;;;;;;5133782;28;20031;-73
2023/08/12 08:53:39;;;;;;;2.60;2.40;;;25.30;60.70;;;;;;5149189;27;20060;-73
2023/08/12 08:56:06;;;;;;;3.67;2.50;;;25.40;60.30;;;;;;5133463;27;20521;-73
2023/08/12 08:58:32;;;;;;;2.60;2.30;;;25.40;60.30;;;;;;5149306;27;20407;-72
2023/08/12 09:00:58;;;;;;;2.80;2.50;;;25.40;60.10;;;;;;5133769;28;20030;-73
2023/08/12 09:03:25;;;;;;;3.15;2.42;;;25.50;59.90;;;;;;5133310;27;20019;-73
2023/08/12 09:05:52;;;;;;;3.97;2.70;;;25.50;59.80;;;;;;5133386;28;20522;-72
2023/08/12 09:08:19;;;;;;;2.30;2.10;;;25.50;59.90;;;;;;5148603;27;20055;-73
2023/08/12 09:10:46;;;;;;;2.50;2.20;;;25.70;59.90;;;;;;5149290;27;20489;-73
2023/08/12 09:13:13;;;;;;;2.35;2.15;;;25.70;59.60;;;;;;5149385;27;20038;-72
2023/08/12 09:15:38;;;;;;;2.90;2.58;;;25.80;59.30;;;;;;5133424;27;20027;-72
2023/08/12 09:18:07;;;;;;;2.50;2.30;;;25.90;59.10;;;;;;5137186;27;20035;-72
2023/08/12 09:20:34;;;;;;;2.50;2.30;;;25.90;58.90;;;;;;5136743;27;20023;-72
2023/08/12 09:23:00;;;;;;;2.70;2.42;;;25.90;59.10;;;;;;5137434;27;20031;-72
2023/08/12 09:25:29;;;;;;;2.70;2.40;;;26.00;59.10;;;;;;5137049;27;20456;-73
2023/08/12 09:27:58;;;;;;;2.40;2.20;;;26.10;58.90;;;;;;5137408;27;20539;-72
2023/08/12 09:30:24;;;;;;;2.60;2.40;;;26.20;58.90;;;;;;5136686;27;20023;-72
2023/08/12 09:33:03;;;;;;;2.70;2.40;;;26.20;58.80;;;;;;5137083;27;20084;-73
2023/08/12 09:35:38;;;;;;;2.58;2.38;;;26.20;58.50;;;;;;5137001;27;20027;-72
2023/08/12 09:38:10;;;;;;;2.60;2.40;;;26.20;58.60;;;;;;5153506;27;20076;-72
2023/08/12 09:40:36;;;;;;;2.45;2.25;;;26.30;58.60;;;;;;5152789;27;20080;-72
2023/08/12 09:43:03;;;;;;;2.40;2.20;;;26.30;58.60;;;;;;5136563;27;20030;-73
2023/08/12 09:45:30;;;;;;;3.08;2.25;;;26.30;58.50;;;;;;5136919;27;20042;-73
2023/08/12 09:47:55;;;;;;;2.60;2.20;;;26.40;58.50;;;;;;5137072;27;20024;-73
2023/08/12 09:50:23;;;;;;;2.40;2.20;;;26.50;58.40;;;;;;5136679;27;20035;-72
2023/08/12 09:52:49;;;;;;;2.65;2.40;;;26.60;58.30;;;;;;5136778;27;20031;-73
2023/08/12 09:55:17;;;;;;;2.67;2.20;;;26.60;58.20;;;;;;5152231;27;20481;-72
2023/08/12 09:57:45;;;;;;;2.85;2.20;;;26.70;58.10;;;;;;5136321;27;20624;-72
2023/08/12 10:00:13;;;;;;;2.53;2.33;;;26.70;58.00;;;;;;5152402;27;20027;-72
2023/08/12 10:02:43;;;;;;;2.30;2.10;;;26.70;58.00;;;;;;5152722;27;20406;-72
2023/08/12 10:05:27;;;;;;;2.30;2.10;;;26.80;58.00;;;;;;5136545;27;20059;-71
2023/08/12 10:07:53;;;;;;;;;;;26.80;57.90;;;;;;5136705;27;20021;-71
2023/08/12 10:10:20;;;;;;;2.30;2.10;;;26.80;57.20;;;;;;5136001;27;19919;-72
2023/08/12 10:12:47;;;;;;;2.33;2.13;;;26.90;57.80;;;;;;5136528;27;20031;-72
2023/08/12 10:15:14;;;;;;;3.35;2.10;;;26.90;57.60;;;;;;5136570;27;20038;-72
2023/08/12 10:17:41;;;;;;;3.10;2.20;;;26.90;57.50;;;;;;5136002;27;20163;-73
2023/08/12 10:20:08;;;;;;;2.30;2.03;;;26.90;57.50;;;;;;5135868;27;20148;-72
2023/08/12 10:22:39;;;;;;;2.53;2.22;;;26.80;57.50;;;;;;5151786;27;20042;-72
2023/08/12 10:25:08;;;;;;;2.50;2.30;;;26.80;57.50;;;;;;5152621;27;20032;-72
2023/08/12 10:27:34;;;;;;;2.72;2.40;;;26.80;57.50;;;;;;5150725;27;20106;-73
2023/08/12 10:30:03;;;;;;;2.83;2.10;;;26.80;57.40;;;;;;5136109;27;20046;-72
2023/08/12 10:32:32;;;;;;;2.47;2.15;;;26.90;57.40;;;;;;5135373;27;20488;-72
2023/08/12 10:34:58;;;;;;;2.08;1.92;;;26.90;57.30;;;;;;5134576;27;20119;-73
2023/08/12 10:37:25;;;;;;;2.40;2.20;;;26.90;57.30;;;;;;5152072;27;20076;-72
2023/08/12 10:39:53;;;;;;;2.50;2.30;;;26.90;57.20;;;;;;5151989;27;20034;-72
2023/08/12 10:42:44;;;;;;;3.17;2.40;;;26.90;57.10;;;;;;5151717;27;20450;-73
2023/08/12 10:45:12;;;;;;;3.20;2.20;;;26.90;56.70;;;;;;5135450;27;20019;-72
2023/08/12 10:48:13;;;;;;;2.22;2.03;;;26.90;57.00;;;;;;5135271;27;20076;-73
2023/08/12 10:50:45;;;;;;;2.40;2.20;;;26.90;56.90;;;;;;5111984;27;20119;-72
2023/08/12 10:53:31;;;;;;;2.30;2.10;;;26.90;56.80;;;;;;5135423;27;20027;-72
2023/08/12 10:55:59;;;;;;;2.58;2.30;;;27.00;56.60;;;;;;5151060;27;20026;-73
2023/08/12 10:58:30;;;;;;;3.17;2.47;;;27.00;56.60;;;;;;5151597;27;20023;-73
2023/08/12 11:00:57;;;;;;;2.55;2.22;;;27.10;56.50;;;;;;5135633;27;20076;-73
2023/08/12 11:03:23;;;;;;;2.75;2.10;;;27.10;56.40;;;;;;5134051;27;20035;-72
2023/08/12 11:05:50;;;;;;;3.88;2.45;;;27.20;56.30;;;;;;5151260;27;20134;-72
2023/08/12 11:08:16;;;;;;;2.72;2.40;;;27.20;56.20;;;;;;5135279;27;20498;-72
2023/08/12 11:10:43;;;;;;;2.60;2.40;;;27.20;56.10;;;;;;5135693;27;20051;-72
2023/08/12 11:13:09;;;;;;;2.67;2.10;;;27.20;56.10;;;;;;5151019;27;20038;-72
2023/08/12 11:15:46;;;;;;;2.05;1.85;;;27.20;56.00;;;;;;5135042;27;20427;-73
2023/08/12 11:18:16;;;;;;;2.50;2.00;;;27.20;55.40;;;;;;5134940;27;20023;-73
2023/08/12 11:20:43;;;;;;;2.70;2.50;;;27.10;54.10;;;;;;5134736;27;20536;-73
2023/08/12 11:23:09;;;;;;;2.40;2.10;;;27.00;55.30;;;;;;5135031;27;20718;-72
2023/08/12 11:25:37;;;;;;;2.13;2.00;;;26.90;55.30;;;;;;5134953;27;20019;-72
2023/08/12 11:28:04;;;;;;;2.25;2.05;;;26.90;55.30;;;;;;5151263;27;20027;-72
2023/08/12 11:30:29;;;;;;;2.60;2.15;;;26.90;55.40;;;;;;5135036;27;20030;-72
2023/08/12 11:32:55;;;;;;;2.30;2.10;;;26.90;55.30;;;;;;5134502;27;20479;-72
2023/08/12 11:35:23;;;;;;;2.78;2.20;;;27.00;56.00;;;;;;5134520;27;20083;-72
2023/08/12 11:37:52;;;;;;;2.60;2.40;;;27.00;55.30;;;;;;5134745;27;20115;-72
2023/08/12 11:40:19;;;;;;;2.58;2.03;;;27.10;55.20;;;;;;5150614;27;20023;-72
2023/08/12 11:42:49;;;;;;;2.40;2.20;;;27.10;55.10;;;;;;5134433;27;20031;-72
2023/08/12 11:45:19;;;;;;;2.67;2.10;;;27.10;55.00;;;;;;5133989;27;20031;-71
2023/08/12 11:47:47;;;;;;;2.88;2.30;;;27.20;55.00;;;;;;5150137;27;20042;-72
2023/08/12 11:50:13;;;;;;;2.30;2.10;;;27.20;55.00;;;;;;5134216;27;20019;-71
2023/08/12 11:52:39;;;;;;;4.43;2.30;;;27.20;55.00;;;;;;5150397;27;20519;-71
2023/08/12 11:55:06;;;;;;;2.88;2.20;;;27.20;54.90;;;;;;5133874;27;20062;-72
2023/08/12 11:57:36;;;;;;;2.53;2.28;;;27.20;54.90;;;;;;5149806;27;20487;-72
2023/08/12 12:00:13;;;;;;;1.95;1.85;;;27.20;54.80;;;;;;5150479;27;20027;-73
2023/08/12 12:02:51;;;;;;;2.50;1.83;;;27.20;54.70;;;;;;5134305;27;20481;-73
2023/08/12 12:05:19;;;;;;;2.13;1.90;;;27.20;54.60;;;;;;5150379;27;20472;-73
2023/08/12 12:07:44;;;;;;;1.90;1.80;;;27.20;54.50;;;;;;5134146;27;20031;-72
2023/08/12 12:10:17;;;;;;;2.28;2.08;;;27.20;54.50;;;;;;5133788;27;20366;-72
2023/08/12 12:12:44;;;;;;;2.58;2.13;;;27.20;54.50;;;;;;5134155;27;20465;-72
2023/08/12 12:15:10;;;;;;;2.53;1.95;;;27.10;54.40;;;;;;5133795;27;20035;-72
2023/08/12 12:17:40;;;;;;;2.30;2.00;;;27.10;54.30;;;;;;5133929;27;20419;-72
2023/08/12 12:20:10;;;;;;;2.35;1.90;;;27.20;54.40;;;;;;5133914;27;20023;-72
2023/08/12 12:22:36;;;;;;;2.05;1.85;;;27.20;54.20;;;;;;5149909;27;20503;-72
2023/08/12 12:25:14;;;;;;;2.83;1.83;;;27.20;54.10;;;;;;5133617;27;20023;-72
2023/08/12 12:27:40;;;;;;;2.10;1.92;;;27.20;53.80;;;;;;5149448;27;20031;-72
2023/08/12 12:30:11;;;;;;;2.08;1.60;;;27.20;53.80;;;;;;5150038;27;20023;-72
2023/08/12 12:32:37;;;;;;;2.28;1.85;;;27.30;53.80;;;;;;5132488;27;20116;-71
2023/08/12 12:35:03;;;;;;;2.13;1.77;;;27.30;53.70;;;;;;5133282;27;20035;-72
2023/08/12 12:37:30;;;;;;;2.03;1.83;;;27.30;53.50;;;;;;5149438;27;20122;-72
2023/08/12 12:39:55;;;;;;;2.28;2.08;;;27.40;53.50;;;;;;5133725;27;20063;-72
2023/08/12 12:42:21;;;;;;;2.30;2.08;;;27.40;53.40;;;;;;5133909;27;20065;-73
2023/08/12 12:44:47;;;;;;;2.42;1.77;;;27.50;53.30;;;;;;5134050;27;20019;-74
2023/08/12 12:47:12;;;;;;;2.38;1.98;;;27.50;52.90;;;;;;5133093;28;20037;-72